Time;durP1;ratioP1;P1;durP2;ratioP2;P2;SDS_P1;SDS_P2;PMS_P1;PMS_P2;Temp;Humidity;BMP_temperature;BMP_pressure;BME280_temperature;BME280_humidity;BME280_pressure;Samples;Min_cycle;Max_cycle;Signal;HPM_P1;HPM_P2
2021/08/21 00:01:04;;;;;;;5.63;3.17;;;;;;;15.53;100.00;101351.03;5073963;28;20448;-71
2021/08/21 00:03:30;;;;;;;5.07;3.60;;;;;;;15.52;100.00;101347.50;5073912;28;20457;-70
2021/08/21 00:05:57;;;;;;;4.80;2.70;;;;;;;15.56;100.00;101355.88;5073947;28;20450;-70
2021/08/21 00:08:23;;;;;;;3.70;2.53;;;;;;;15.59;100.00;101350.59;5073775;28;20481;-70
2021/08/21 00:10:50;;;;;;;4.93;3.10;;;;;;;15.64;100.00;101346.94;5073439;28;20438;-70
2021/08/21 00:13:16;;;;;;;6.63;4.43;;;;;;;15.59;100.00;101347.88;5073643;28;20446;-71
2021/08/21 00:15:42;;;;;;;6.70;4.30;;;;;;;15.56;100.00;101344.94;5073702;28;20817;-70
2021/08/21 00:18:10;;;;;;;4.50;3.73;;;;;;;15.52;100.00;101344.78;5073654;28;20441;-70
2021/08/21 00:20:37;;;;;;;6.17;3.60;;;;;;;15.50;100.00;101357.16;5073646;28;20444;-70
2021/08/21 00:23:03;;;;;;;5.30;3.73;;;;;;;15.49;100.00;101352.78;5073527;28;20448;-70
2021/08/21 00:25:30;;;;;;;4.80;3.27;;;;;;;15.51;100.00;101353.28;5073553;28;20437;-70
2021/08/21 00:27:56;;;;;;;3.90;2.83;;;;;;;15.51;100.00;101356.03;5079915;28;20508;-71
2021/08/21 00:30:23;;;;;;;7.80;3.00;;;;;;;15.47;100.00;101357.78;5073500;28;20471;-71
2021/08/21 00:32:51;;;;;;;4.03;3.17;;;;;;;15.46;100.00;101356.16;5073450;28;20449;-71
2021/08/21 00:35:19;;;;;;;5.37;3.50;;;;;;;15.38;100.00;101361.25;5073328;28;20465;-71
2021/08/21 00:37:46;;;;;;;4.43;3.30;;;;;;;15.33;100.00;101357.88;5073371;28;20433;-70
2021/08/21 00:40:13;;;;;;;6.43;2.80;;;;;;;15.39;100.00;101356.59;5073348;28;20437;-70
2021/08/21 00:42:40;;;;;;;4.67;3.37;;;;;;;15.43;100.00;101357.59;5073362;28;20436;-70
2021/08/21 00:45:08;;;;;;;5.53;3.53;;;;;;;15.43;100.00;101352.13;5072067;28;20912;-70
2021/08/21 00:47:34;;;;;;;3.57;3.10;;;;;;;15.36;100.00;101352.59;5073228;28;20480;-69
2021/08/21 00:50:01;;;;;;;5.13;3.10;;;;;;;15.40;100.00;101350.03;5073226;28;20438;-69
2021/08/21 00:52:31;;;;;;;5.00;3.63;;;;;;;15.45;100.00;101346.34;5073183;28;20441;-69
2021/08/21 00:54:58;;;;;;;5.10;4.47;;;;;;;15.41;100.00;101350.84;5073437;28;20465;-69
2021/08/21 00:57:26;;;;;;;3.63;2.63;;;;;;;15.37;100.00;101353.41;5073125;28;20450;-69
2021/08/21 00:59:53;;;;;;;3.67;2.57;;;;;;;15.47;100.00;101346.84;5073148;28;20449;-69
2021/08/21 01:02:21;;;;;;;5.00;3.67;;;;;;;15.53;100.00;101349.09;5072820;28;20942;-69
2021/08/21 01:04:49;;;;;;;2.77;2.33;;;;;;;15.60;100.00;101343.19;5073007;28;20465;-69
2021/08/21 01:07:18;;;;;;;3.63;3.10;;;;;;;15.64;100.00;101346.94;5072969;28;20484;-69
2021/08/21 01:09:46;;;;;;;6.17;3.77;;;;;;;15.63;100.00;101351.56;5072999;28;20442;-69
2021/08/21 01:12:14;;;;;;;3.83;2.77;;;;;;;15.66;100.00;101350.16;5072985;28;20444;-69
2021/08/21 01:14:42;;;;;;;5.30;3.90;;;;;;;15.70;100.00;101356.59;5072917;28;20470;-69
2021/08/21 01:17:10;;;;;;;4.83;2.87;;;;;;;15.65;100.00;101348.56;5073019;28;20444;-69
2021/08/21 01:19:38;;;;;;;4.73;2.83;;;;;;;15.62;100.00;101351.88;5072732;28;20953;-69
2021/08/21 01:22:04;;;;;;;4.30;3.53;;;;;;;15.56;100.00;101353.94;5072914;28;20441;-69
2021/08/21 01:24:31;;;;;;;6.07;3.87;;;;;;;15.56;100.00;101350.41;5072876;28;20457;-69
2021/08/21 01:26:59;;;;;;;5.63;4.17;;;;;;;15.56;100.00;101351.22;5072886;28;20485;-69
2021/08/21 01:29:26;;;;;;;5.20;3.30;;;;;;;15.56;100.00;101353.16;5072852;28;20441;-70
2021/08/21 01:31:52;;;;;;;5.63;3.77;;;;;;;15.54;100.00;101353.47;5072514;28;20938;-69
2021/08/21 01:34:19;;;;;;;4.60;3.50;;;;;;;15.56;100.00;101351.22;5072774;28;20472;-69
2021/08/21 01:36:48;;;;;;;7.43;4.20;;;;;;;15.55;100.00;101355.06;5072475;28;20950;-69
2021/08/21 01:39:15;;;;;;;3.97;2.70;;;;;;;15.54;100.00;101348.00;5072847;28;20449;-69
2021/08/21 01:41:42;;;;;;;6.30;3.97;;;;;;;15.56;100.00;101355.88;5072988;28;20460;-69
2021/08/21 01:44:11;;;;;;;7.17;3.23;;;;;;;15.54;100.00;101352.66;5072290;28;20862;-69
2021/08/21 01:46:37;;;;;;;6.60;3.73;;;;;;;15.59;100.00;101344.34;5072766;28;20441;-69
2021/08/21 01:49:07;;;;;;;6.90;3.93;;;;;;;15.71;100.00;101339.06;5072153;28;20492;-69
2021/08/21 01:51:34;;;;;;;5.73;3.47;;;;;;;15.74;100.00;101349.38;5072386;28;20805;-69
2021/08/21 01:54:00;;;;;;;5.43;3.20;;;;;;;15.76;100.00;101341.69;5072548;28;20468;-69
2021/08/21 01:56:27;;;;;;;5.13;4.17;;;;;;;15.76;100.00;101343.59;5075022;28;20529;-71
2021/08/21 01:58:54;;;;;;;5.13;3.77;;;;;;;15.74;100.00;101338.44;5076294;28;20642;-70
2021/08/21 02:01:21;;;;;;;7.70;4.00;;;;;;;15.78;100.00;101347.63;5075960;28;20962;-70
2021/08/21 02:03:48;;;;;;;11.53;6.10;;;;;;;15.70;100.00;101359.31;5076083;28;20468;-70
2021/08/21 02:06:14;;;;;;;10.40;5.33;;;;;;;15.67;100.00;101353.69;5076178;28;20441;-70
2021/08/21 02:08:42;;;;;;;6.47;3.43;;;;;;;15.68;100.00;101349.84;5076033;28;20526;-70
2021/08/21 02:11:09;;;;;;;8.60;4.47;;;;;;;15.72;100.00;101348.09;5076053;28;20445;-70
2021/08/21 02:13:35;;;;;;;5.53;4.07;;;;;;;15.70;100.00;101347.59;5075953;28;20476;-70
2021/08/21 02:16:02;;;;;;;5.43;3.27;;;;;;;15.71;100.00;101341.81;5075973;28;20441;-69
2021/08/21 02:18:29;;;;;;;6.57;3.37;;;;;;;15.56;100.00;101344.94;5075659;28;20499;-70
2021/08/21 02:20:56;;;;;;;5.63;4.20;;;;;;;15.56;100.00;101343.03;5078167;28;20444;-70
2021/08/21 02:23:22;;;;;;;7.07;3.33;;;;;;;15.51;100.00;101342.38;5079892;28;20456;-71
2021/08/21 02:25:55;;;;;;;5.60;4.00;;;;;;;15.48;100.00;101340.25;5075491;28;20820;-71
2021/08/21 02:28:22;;;;;;;6.87;3.90;;;;;;;15.39;100.00;101348.41;5075764;28;20474;-71
2021/08/21 02:30:48;;;;;;;8.17;4.60;;;;;;;15.33;100.00;101341.50;5075442;28;20444;-71
2021/08/21 02:33:15;;;;;;;5.63;3.93;;;;;;;15.29;100.00;101341.31;5075627;28;20445;-70
2021/08/21 02:35:43;;;;;;;5.00;3.37;;;;;;;15.27;100.00;101346.28;5075392;28;20441;-71
2021/08/21 02:38:10;;;;;;;4.57;3.70;;;;;;;15.19;100.00;101340.78;5075600;28;20437;-71
2021/08/21 02:40:37;;;;;;;5.30;3.40;;;;;;;15.04;100.00;101347.44;5075537;28;20441;-70
2021/08/21 02:43:04;;;;;;;7.73;4.20;;;;;;;15.00;100.00;101349.97;5075441;28;20445;-70
2021/08/21 02:45:30;;;;;;;5.70;3.77;;;;;;;15.08;100.00;101353.88;5075083;28;20450;-71
2021/08/21 02:47:57;;;;;;;7.77;4.07;;;;;;;14.95;100.00;101352.03;5075302;28;20489;-70
2021/08/21 02:50:23;;;;;;;5.00;3.17;;;;;;;14.99;100.00;101348.38;5075409;28;20441;-70
2021/08/21 02:52:51;;;;;;;4.50;3.10;;;;;;;14.98;100.00;101356.88;5075280;28;20445;-70
2021/08/21 02:55:18;;;;;;;6.37;3.93;;;;;;;14.89;100.00;101354.88;5075270;28;20920;-70
2021/08/21 02:57:44;;;;;;;2.93;2.50;;;;;;;14.83;100.00;101358.88;5075211;28;20443;-70
2021/08/21 03:00:12;;;;;;;7.70;3.07;;;;;;;14.75;100.00;101347.91;5075155;28;20449;-70
2021/08/21 03:02:40;;;;;;;5.10;2.97;;;;;;;14.65;100.00;101354.38;5074848;28;20965;-70
2021/08/21 03:05:07;;;;;;;4.97;3.43;;;;;;;14.64;100.00;101360.97;5075010;28;20469;-70
2021/08/21 03:07:33;;;;;;;5.10;3.33;;;;;;;14.55;100.00;101354.63;5073916;28;20827;-70
2021/08/21 03:10:01;;;;;;;4.17;3.23;;;;;;;14.45;100.00;101361.09;5074740;28;20453;-70
2021/08/21 03:12:29;;;;;;;4.60;3.83;;;;;;;14.46;100.00;101357.25;5074942;28;20437;-70
2021/08/21 03:14:55;;;;;;;7.27;3.70;;;;;;;14.49;100.00;101355.88;5074502;28;21005;-70
2021/08/21 03:17:22;;;;;;;7.50;3.10;;;;;;;14.51;100.00;101354.44;5074862;28;20448;-70
2021/08/21 03:19:48;;;;;;;5.60;3.93;;;;;;;14.53;100.00;101352.22;5074767;28;20821;-71
2021/08/21 03:22:15;;;;;;;4.73;3.70;;;;;;;14.53;100.00;101354.97;5074776;28;20441;-70
2021/08/21 03:24:41;;;;;;;4.63;2.73;;;;;;;14.53;100.00;101352.22;5074670;28;20465;-70
2021/08/21 03:27:09;;;;;;;4.23;3.30;;;;;;;14.50;100.00;101347.38;5074670;28;20446;-71
2021/08/21 03:29:36;;;;;;;5.37;3.73;;;;;;;14.47;100.00;101356.13;5074568;28;20481;-70
2021/08/21 03:32:03;;;;;;;5.47;2.87;;;;;;;14.35;100.00;101348.53;5074325;28;20445;-70
2021/08/21 03:34:31;;;;;;;5.33;3.93;;;;;;;14.26;100.00;101353.09;5074465;28;20464;-70
2021/08/21 03:36:57;;;;;;;3.80;2.90;;;;;;;14.34;100.00;101348.81;5074456;28;20445;-71
2021/08/21 03:39:24;;;;;;;5.40;3.30;;;;;;;14.20;100.00;101348.84;5074412;28;20437;-70
2021/08/21 03:41:50;;;;;;;3.50;2.47;;;;;;;14.20;100.00;101358.94;5074331;28;20445;-73
2021/08/21 03:44:18;;;;;;;3.67;2.73;;;;;;;14.17;100.00;101354.13;5074021;28;20473;-70
2021/08/21 03:46:44;;;;;;;6.70;3.97;;;;;;;14.19;100.00;101357.34;5074229;28;20445;-70
2021/08/21 03:49:11;;;;;;;3.73;2.80;;;;;;;14.10;100.00;101359.97;5074156;28;20489;-73
2021/08/21 03:51:37;;;;;;;4.40;2.93;;;;;;;14.14;100.00;101360.97;5073869;28;20938;-71
2021/08/21 03:54:04;;;;;;;3.27;2.70;;;;;;;14.05;100.00;101352.72;5074031;28;20454;-71
2021/08/21 03:56:30;;;;;;;4.10;3.07;;;;;;;14.09;100.00;101361.91;5074094;28;20437;-71
2021/08/21 03:58:57;;;;;;;5.00;2.80;;;;;;;14.18;100.00;101367.44;5074025;28;20437;-71
2021/08/21 04:01:24;;;;;;;4.20;3.10;;;;;;;14.31;100.00;101363.88;5073964;28;20478;-71
2021/08/21 04:03:51;;;;;;;3.90;2.90;;;;;;;14.37;100.00;101359.91;5073840;28;20469;-71
2021/08/21 04:06:19;;;;;;;5.53;3.67;;;;;;;14.29;100.00;101368.00;5073845;28;20438;-71
2021/08/21 04:08:45;;;;;;;3.23;2.47;;;;;;;14.19;100.00;101368.25;5073771;28;20481;-70
2021/08/21 04:11:11;;;;;;;3.17;2.30;;;;;;;14.10;100.00;101376.31;5073555;28;20962;-71
2021/08/21 04:13:38;;;;;;;3.63;2.27;;;;;;;14.11;100.00;101367.03;5073680;28;20456;-71
2021/08/21 04:16:05;;;;;;;4.33;3.30;;;;;;;14.02;100.00;101374.31;5079987;28;20449;-71
2021/08/21 04:18:32;;;;;;;3.67;2.83;;;;;;;14.10;100.00;101376.31;5074355;28;20490;-71
2021/08/21 04:20:59;;;;;;;2.33;2.03;;;;;;;14.12;100.00;101385.81;5073677;28;20441;-71
2021/08/21 04:23:25;;;;;;;2.80;2.13;;;;;;;14.03;100.00;101392.28;5073597;28;20484;-71
2021/08/21 04:25:52;;;;;;;5.10;3.13;;;;;;;14.03;100.00;101389.53;5073554;28;20450;-71
2021/08/21 04:28:18;;;;;;;2.13;1.93;;;;;;;14.08;100.00;101389.47;5073485;28;20480;-71
2021/08/21 04:30:45;;;;;;;4.20;2.93;;;;;;;14.08;100.00;101387.53;5073535;28;20442;-71
2021/08/21 04:33:11;;;;;;;7.23;3.27;;;;;;;14.04;100.00;101402.06;5073367;28;20452;-71
2021/08/21 04:35:39;;;;;;;4.00;3.00;;;;;;;13.98;100.00;101398.63;5073405;28;20448;-71
2021/08/21 04:38:06;;;;;;;5.00;2.77;;;;;;;14.12;100.00;101406.78;5073410;28;20473;-70
2021/08/21 04:40:32;;;;;;;2.43;2.20;;;;;;;14.15;100.00;101400.72;5073055;28;20935;-71
2021/08/21 04:42:59;;;;;;;5.00;3.50;;;;;;;14.22;100.00;101406.59;5073226;28;20452;-71
2021/08/21 04:45:25;;;;;;;4.73;3.83;;;;;;;14.21;100.00;101407.72;5072942;28;20457;-71
2021/08/21 04:47:52;;;;;;;8.70;4.60;;;;;;;14.27;100.00;101402.94;5073207;28;20438;-71
2021/08/21 04:50:18;;;;;;;4.80;2.80;;;;;;;14.31;100.00;101407.47;5073222;28;20438;-71
2021/08/21 04:52:46;;;;;;;3.23;2.43;;;;;;;14.37;100.00;101408.97;5073181;28;20512;-70
2021/08/21 04:55:12;;;;;;;4.57;3.10;;;;;;;14.45;100.00;101407.44;5074459;28;20473;-71
2021/08/21 04:57:39;;;;;;;4.30;2.87;;;;;;;14.57;100.00;101407.75;5073177;28;20475;-71
2021/08/21 05:00:07;;;;;;;5.50;3.10;;;;;;;14.67;100.00;101405.91;5072823;28;20839;-71
2021/08/21 05:02:33;;;;;;;4.70;3.63;;;;;;;14.60;100.00;101407.13;5073094;28;20452;-70
2021/08/21 05:05:00;;;;;;;7.57;3.80;;;;;;;14.68;100.00;101404.78;5073043;28;20457;-71
2021/08/21 05:07:26;;;;;;;8.27;4.40;;;;;;;14.83;100.00;101402.50;5073107;28;20452;-71
2021/08/21 05:09:54;;;;;;;5.53;3.50;;;;;;;14.87;100.00;101411.69;5072992;28;20895;-71
2021/08/21 05:12:20;;;;;;;4.53;3.33;;;;;;;14.87;100.00;101419.03;5073053;28;20449;-71
2021/08/21 05:14:47;;;;;;;5.10;3.20;;;;;;;14.93;100.00;101415.09;5072971;28;20465;-71
2021/08/21 05:17:13;;;;;;;5.67;3.73;;;;;;;14.88;100.00;101417.94;5073021;28;20449;-71
2021/08/21 05:19:42;;;;;;;5.07;3.23;;;;;;;14.92;100.00;101415.38;5072676;28;20926;-71
2021/08/21 05:22:23;;;;;;;4.40;3.07;;;;;;;14.98;100.00;101416.91;5073179;28;20449;-71
2021/08/21 05:24:50;;;;;;;5.80;3.90;;;;;;;14.93;100.00;101419.75;5072911;28;20469;-71
2021/08/21 05:27:18;;;;;;;4.80;2.63;;;;;;;15.04;100.00;101437.47;5072976;28;20453;-71
2021/08/21 05:29:45;;;;;;;7.10;3.83;;;;;;;15.13;100.00;101430.94;5072853;28;20477;-71
2021/08/21 05:32:11;;;;;;;7.50;3.20;;;;;;;15.28;100.00;101431.72;5076312;28;20937;-72
2021/08/21 05:34:38;;;;;;;7.43;3.80;;;;;;;15.32;100.00;101438.97;5076821;28;20461;-71
2021/08/21 05:37:05;;;;;;;6.87;4.13;;;;;;;15.43;100.00;101433.22;5076776;28;20448;-71
2021/08/21 05:39:32;;;;;;;4.47;3.67;;;;;;;15.55;100.00;101441.66;5076726;28;20445;-71
2021/08/21 05:41:59;;;;;;;8.87;4.57;;;;;;;15.63;100.00;101438.97;5076768;28;20487;-72
2021/08/21 05:44:26;;;;;;;7.17;4.63;;;;;;;15.74;100.00;101439.53;5076331;28;20480;-72
2021/08/21 05:46:53;;;;;;;9.77;5.60;;;;;;;15.86;100.00;101444.41;5076540;28;20444;-72
2021/08/21 05:49:19;;;;;;;8.20;5.60;;;;;;;15.99;100.00;101451.69;5076402;28;20484;-70
2021/08/21 05:51:46;;;;;;;6.73;4.37;;;;;;;16.08;100.00;101444.31;5076509;28;20444;-70
2021/08/21 05:54:12;;;;;;;6.30;4.20;;;;;;;16.17;100.00;101441.63;5076351;28;20457;-70
2021/08/21 05:56:39;;;;;;;7.80;5.77;;;;;;;16.23;100.00;101445.78;5076386;28;20437;-70
2021/08/21 05:59:05;;;;;;;6.40;3.50;;;;;;;16.30;100.00;101443.41;5076000;28;20926;-70
2021/08/21 06:01:33;;;;;;;10.63;6.03;;;;;;;16.31;100.00;101447.75;5076233;28;20444;-70
2021/08/21 06:03:59;;;;;;;6.13;3.97;;;;;;;16.38;100.00;101450.84;5076176;28;20465;-70
2021/08/21 06:06:26;;;;;;;12.27;5.07;;;;;;;16.40;100.00;101451.31;5075973;28;20422;-70
2021/08/21 06:08:52;;;;;;;7.70;5.73;;;;;;;16.46;100.00;101445.69;5075865;28;20480;-70
2021/08/21 06:11:19;;;;;;;11.57;6.23;;;;;;;16.50;100.00;101452.13;5082661;28;20445;-70
2021/08/21 06:13:45;;;;;;;7.07;5.47;;;;;;;16.63;100.00;101459.38;5075995;28;20468;-71
2021/08/21 06:16:11;;;;;;;8.03;5.50;;;;;;;16.72;100.00;101457.47;5076028;28;20441;-71
2021/08/21 06:18:39;;;;;;;7.60;4.80;;;;;;;16.77;100.00;101462.00;5075998;28;20445;-70
2021/08/21 06:21:06;;;;;;;5.20;3.77;;;;;;;16.82;100.00;101461.81;5075958;28;20550;-71
2021/08/21 06:23:32;;;;;;;10.47;4.70;;;;;;;16.88;100.00;101463.31;5075794;28;20464;-71
2021/08/21 06:25:58;;;;;;;7.17;4.97;;;;;;;16.97;100.00;101468.78;5075826;28;20445;-70
2021/08/21 06:28:25;;;;;;;5.93;3.50;;;;;;;17.01;100.00;101464.25;5075663;28;20442;-70
2021/08/21 06:30:51;;;;;;;7.10;4.07;;;;;;;17.10;100.00;101467.81;5075777;28;20448;-70
2021/08/21 06:33:18;;;;;;;9.07;5.17;;;;;;;17.15;100.00;101462.16;5075654;28;20507;-71
2021/08/21 06:35:46;;;;;;;6.50;4.33;;;;;;;17.22;100.00;101464.38;5075672;28;20445;-70
2021/08/21 06:38:12;;;;;;;7.60;4.60;;;;;;;17.23;100.00;101466.03;5075282;28;20961;-71
2021/08/21 06:40:39;;;;;;;13.47;5.20;;;;;;;17.27;100.00;101465.03;5075588;28;20441;-71
2021/08/21 06:43:05;;;;;;;5.90;4.47;;;;;;;17.27;100.00;101470.53;5074257;28;20441;-71
2021/08/21 06:45:32;;;;;;;6.47;4.07;;;;;;;17.38;100.00;101469.03;5075113;28;20946;-71
2021/08/21 06:47:58;;;;;;;9.47;4.57;;;;;;;17.49;100.00;101479.66;5075487;28;20437;-70
2021/08/21 06:50:24;;;;;;;9.10;5.03;;;;;;;17.63;100.00;101470.13;5075320;28;20477;-69
2021/08/21 06:52:52;;;;;;;6.90;4.70;;;;;;;17.80;100.00;101477.50;5075321;28;20441;-69
2021/08/21 06:55:19;;;;;;;5.30;3.87;;;;;;;17.93;100.00;101472.13;5075245;28;20590;-70
2021/08/21 06:57:46;;;;;;;7.40;3.60;;;;;;;18.08;100.00;101471.59;5075344;28;20437;-70
2021/08/21 07:00:13;;;;;;;5.87;3.43;;;;;;;18.22;100.00;101474.09;5075281;28;20445;-70
2021/08/21 07:02:40;;;;;;;8.87;4.30;;;;;;;18.35;100.00;101478.53;5075336;28;20448;-72
2021/08/21 07:05:07;;;;;;;9.03;4.67;;;;;;;18.48;100.00;101472.00;5074742;28;20997;-70
2021/08/21 07:07:35;;;;;;;4.97;3.53;;;;;;;18.56;100.00;101467.59;5075118;28;20446;-70
2021/08/21 07:10:03;;;;;;;6.10;3.97;;;;;;;18.61;100.00;101475.63;5075101;28;20485;-77
2021/08/21 07:12:30;;;;;;;10.50;4.60;;;;;;;18.62;96.31;101475.28;5075058;28;20438;-76
2021/08/21 07:14:56;;;;;;;6.20;3.30;;;;;;;18.73;94.69;101475.75;5074853;28;20461;-74
2021/08/21 07:17:23;;;;;;;9.53;4.70;;;;;;;18.86;95.06;101477.41;5075011;28;20445;-75
2021/08/21 07:19:49;;;;;;;5.97;3.40;;;;;;;18.94;95.37;101483.16;5074917;28;20441;-75
2021/08/21 07:22:16;;;;;;;6.03;4.07;;;;;;;18.97;94.77;101475.06;5074989;28;20461;-75
2021/08/21 07:24:42;;;;;;;8.13;3.30;;;;;;;18.97;94.86;101477.81;5074461;28;20989;-74
2021/08/21 07:27:10;;;;;;;5.33;3.20;;;;;;;18.95;96.12;101476.53;5074294;28;20453;-74
2021/08/21 07:29:37;;;;;;;3.70;2.60;;;;;;;18.92;97.00;101479.94;5074595;28;20481;-74
2021/08/21 07:32:04;;;;;;;6.37;4.00;;;;;;;18.92;95.28;101488.19;5074439;28;20457;-75
2021/08/21 07:34:36;;;;;;;3.97;2.67;;;;;;;18.95;94.76;101482.00;5073862;28;20476;-74
2021/08/21 07:37:02;;;;;;;4.00;2.47;;;;;;;19.03;95.28;101476.44;5074110;28;20495;-75
2021/08/21 07:39:29;;;;;;;5.40;3.20;;;;;;;19.11;95.63;101485.75;5074138;28;20969;-75
2021/08/21 07:41:55;;;;;;;4.70;2.93;;;;;;;19.16;95.94;101494.59;5074345;28;20452;-75
2021/08/21 07:44:23;;;;;;;6.37;3.57;;;;;;;19.16;95.48;101489.09;5074034;28;20489;-75
2021/08/21 07:46:50;;;;;;;18.63;3.73;;;;;;;19.18;96.47;101491.53;5074260;28;20449;-75
2021/08/21 07:49:16;;;;;;;13.93;4.23;;;;;;;19.21;96.97;101493.56;5074136;28;20481;-75
2021/08/21 07:51:43;;;;;;;3.10;2.33;;;;;;;19.25;97.18;101501.94;5074173;28;20449;-74
2021/08/21 07:54:09;;;;;;;5.23;2.63;;;;;;;19.27;97.12;101496.94;5073764;28;20469;-75
2021/08/21 07:56:35;;;;;;;4.67;3.00;;;;;;;19.33;93.29;101501.06;5074097;28;20444;-74
2021/08/21 07:59:02;;;;;;;4.33;2.90;;;;;;;19.40;91.78;101501.34;5073731;28;20957;-75
2021/08/21 08:01:30;;;;;;;5.00;2.53;;;;;;;19.43;91.60;101497.88;5073771;28;20430;-75
2021/08/21 08:03:56;;;;;;;3.60;2.70;;;;;;;19.55;91.05;101499.88;5073633;28;20992;-75
2021/08/21 08:06:23;;;;;;;5.77;2.80;;;;;;;19.68;88.15;101501.53;5080521;28;20437;-74
2021/08/21 08:08:49;;;;;;;7.10;3.50;;;;;;;19.85;87.69;101500.56;5075719;28;20445;-74
2021/08/21 08:11:15;;;;;;;5.43;3.00;;;;;;;19.97;85.47;101502.53;5073528;28;20946;-74
2021/08/21 08:13:42;;;;;;;6.83;3.17;;;;;;;20.11;85.16;101503.00;5073407;28;20859;-74
2021/08/21 08:16:08;;;;;;;7.17;2.90;;;;;;;20.29;84.59;101509.06;5073677;28;20437;-74
2021/08/21 08:18:36;;;;;;;4.20;2.50;;;;;;;20.48;83.06;101508.50;5073714;28;20879;-74
2021/08/21 08:21:03;;;;;;;5.97;2.40;;;;;;;20.51;82.30;101503.13;5073355;28;20437;-74
2021/08/21 08:23:29;;;;;;;4.40;2.87;;;;;;;20.50;83.31;101509.78;5073560;28;20465;-75
2021/08/21 08:25:56;;;;;;;7.97;3.00;;;;;;;20.54;81.28;101501.59;5073552;28;20441;-75
2021/08/21 08:28:22;;;;;;;5.40;3.60;;;;;;;20.68;80.96;101501.25;5073258;28;20441;-75
2021/08/21 08:30:49;;;;;;;8.07;3.33;;;;;;;20.74;79.22;101508.94;5073427;28;20477;-75
2021/08/21 08:33:16;;;;;;;4.73;2.43;;;;;;;20.83;79.61;101508.78;5073399;28;20456;-75
2021/08/21 08:35:43;;;;;;;3.83;2.23;;;;;;;20.91;79.27;101514.16;5073444;28;20446;-72
2021/08/21 08:38:10;;;;;;;7.27;3.50;;;;;;;20.95;80.05;101511.53;5073415;28;20438;-75
2021/08/21 08:40:36;;;;;;;5.43;2.73;;;;;;;20.86;79.47;101519.91;5073070;28;20965;-75
2021/08/21 08:43:05;;;;;;;3.93;2.70;;;;;;;20.85;79.61;101515.56;5073024;28;20934;-75
2021/08/21 08:45:31;;;;;;;6.50;2.60;;;;;;;20.77;80.99;101512.94;5072987;28;20457;-76
2021/08/21 08:47:58;;;;;;;5.50;2.90;;;;;;;20.64;80.33;101518.47;5073330;28;20449;-75
2021/08/21 08:50:26;;;;;;;2.37;2.17;;;;;;;20.62;81.57;101519.94;5073220;28;20829;-75
2021/08/21 08:52:53;;;;;;;4.47;2.90;;;;;;;20.56;82.00;101522.16;5073275;28;20450;-75
2021/08/21 08:55:21;;;;;;;3.30;2.27;;;;;;;20.41;84.25;101515.38;5073149;28;20472;-74
2021/08/21 08:57:48;;;;;;;3.77;2.20;;;;;;;20.50;85.35;101520.00;5073248;28;20437;-74
2021/08/21 09:00:17;;;;;;;3.73;2.83;;;;;;;20.45;84.33;101522.91;5073246;28;20814;-75
2021/08/21 09:02:45;;;;;;;7.03;3.77;;;;;;;20.46;83.55;101522.59;5073198;28;20437;-74
2021/08/21 09:05:14;;;;;;;5.87;3.10;;;;;;;20.45;82.24;101528.44;5072369;28;20461;-75
2021/08/21 09:07:42;;;;;;;3.90;2.50;;;;;;;20.40;80.88;101524.75;5073237;28;20441;-75
2021/08/21 09:10:17;;;;;;;6.83;3.57;;;;;;;20.41;82.98;101528.34;5072485;28;21009;-75
2021/08/21 09:12:44;;;;;;;4.57;2.87;;;;;;;20.52;82.05;101528.69;5073082;28;20805;-75
2021/08/21 09:15:25;;;;;;;5.93;3.87;;;;;;;20.74;81.20;101532.91;5072967;28;20461;-75
2021/08/21 09:18:05;;;;;;;6.77;3.77;;;;;;;20.90;80.66;101528.28;5072891;28;20453;-76
2021/08/21 09:20:32;;;;;;;5.23;3.10;;;;;;;21.06;81.57;101531.09;5073123;28;20421;-75
2021/08/21 09:23:16;;;;;;;3.60;2.30;;;;;;;21.08;77.66;101534.31;5072977;28;20449;-76
2021/08/21 09:25:44;;;;;;;5.63;2.50;;;;;;;21.13;77.61;101528.56;5072746;28;20793;-75
2021/08/21 09:28:15;;;;;;;4.57;2.03;;;;;;;21.16;75.31;101528.69;5072928;28;20512;-75
2021/08/21 09:30:42;;;;;;;10.43;2.97;;;;;;;21.20;75.37;101528.75;5072793;28;20466;-75
2021/08/21 09:33:08;;;;;;;7.53;3.50;;;;;;;21.30;76.12;101525.53;5072858;28;20448;-75
2021/08/21 09:35:35;;;;;;;6.83;2.43;;;;;;;21.29;77.17;101528.59;5072518;28;20448;-75
2021/08/21 09:38:03;;;;;;;3.30;2.53;;;;;;;21.32;76.53;101533.47;5072870;28;20457;-70
2021/08/21 09:40:31;;;;;;;5.00;2.37;;;;;;;21.35;76.68;101522.53;5072778;28;20473;-71
2021/08/21 09:43:00;;;;;;;4.37;2.43;;;;;;;21.38;77.17;101515.50;5072788;28;20445;-70
2021/08/21 09:45:27;;;;;;;4.00;2.70;;;;;;;21.38;76.47;101523.78;5072385;28;20959;-70
2021/08/21 09:48:00;;;;;;;7.13;2.70;;;;;;;21.36;76.70;101518.63;5072354;28;20938;-70
2021/08/21 09:50:28;;;;;;;4.43;3.00;;;;;;;21.41;77.83;101525.84;5072574;28;20488;-70
2021/08/21 09:53:02;;;;;;;3.87;2.43;;;;;;;21.53;77.74;101527.75;5072193;28;20444;-70
2021/08/21 09:55:29;;;;;;;1.90;1.40;;;;;;;21.45;72.45;101520.44;5072759;28;20426;-70
2021/08/21 09:58:02;;;;;;;3.47;1.90;;;;;;;21.54;74.75;101518.31;5072392;28;20445;-71
2021/08/21 10:00:30;;;;;;;2.00;1.40;;;;;;;21.52;73.50;101512.34;5072773;28;20468;-70
2021/08/21 10:02:57;;;;;;;3.30;2.40;;;;;;;21.78;73.45;101518.19;5072198;28;20470;-70
2021/08/21 10:05:24;;;;;;;3.37;1.83;;;;;;;21.87;71.81;101516.06;5078912;28;20465;-71
2021/08/21 10:07:56;;;;;;;3.30;2.07;;;;;;;21.99;70.53;101509.63;5072591;28;20452;-71
2021/08/21 10:10:23;;;;;;;3.13;1.97;;;;;;;22.18;71.61;101517.25;5072228;28;20561;-70
2021/08/21 10:12:54;;;;;;;5.97;1.97;;;;;;;22.29;70.18;101518.28;5073275;28;20564;-70
2021/08/21 10:15:23;;;;;;;2.60;1.70;;;;;;;22.36;70.34;101518.47;5072262;28;21005;-71
2021/08/21 10:17:50;;;;;;;2.27;1.80;;;;;;;22.45;70.04;101520.22;5075262;28;20441;-70
2021/08/21 10:20:17;;;;;;;3.50;2.20;;;;;;;22.48;70.63;101513.97;5076381;28;20437;-70
2021/08/21 10:22:43;;;;;;;2.17;1.13;;;;;;;22.60;69.34;101522.94;5075892;28;20441;-70
2021/08/21 10:25:12;;;;;;;2.33;1.50;;;;;;;22.65;68.44;101510.81;5075862;28;20472;-70
2021/08/21 10:27:44;;;;;;;3.10;2.00;;;;;;;22.75;68.34;101521.28;5075535;28;20935;-71
2021/08/21 10:30:14;;;;;;;2.47;2.10;;;;;;;22.92;66.37;101517.34;5075742;28;20469;-71
2021/08/21 10:32:44;;;;;;;3.40;1.90;;;;;;;23.16;69.47;101519.84;5075782;28;20811;-71
2021/08/21 10:35:12;;;;;;;2.20;1.60;;;;;;;23.38;67.46;101523.84;5075852;28;20795;-70
2021/08/21 10:37:41;;;;;;;2.73;1.40;;;;;;;23.46;67.91;101521.19;5075888;28;20450;-70
2021/08/21 10:40:37;;;;;;;2.10;1.43;;;;;;;23.64;68.93;101516.78;5075737;28;20441;-70
2021/08/21 10:43:05;;;;;;;1.80;1.40;;;;;;;23.62;65.67;101519.13;5075701;28;20438;-71
2021/08/21 10:45:48;;;;;;;2.77;1.70;;;;;;;23.62;63.25;101519.13;5075298;28;20457;-71
2021/08/21 10:48:53;;;;;;;2.77;1.87;;;;;;;23.51;65.04;101513.41;5075595;28;20445;-71
2021/08/21 10:51:35;;;;;;;2.30;1.63;;;;;;;23.84;62.81;101515.59;5075160;28;21000;-70
2021/08/21 10:54:40;;;;;;;3.37;1.47;;;;;;;23.95;61.31;101517.75;5076977;28;20460;-70
2021/08/21 10:57:27;;;;;;;2.70;1.70;;;;;;;23.64;63.45;101508.47;5074965;28;20962;-71
2021/08/21 10:59:54;;;;;;;3.40;1.93;;;;;;;23.72;63.10;101507.47;5075069;28;20864;-71
2021/08/21 11:02:40;;;;;;;4.03;2.03;;;;;;;23.59;63.40;101506.03;5075266;28;20442;-71
2021/08/21 11:05:28;;;;;;;2.17;1.80;;;;;;;23.80;62.90;101505.66;5075250;28;20468;-70
2021/08/21 11:08:03;;;;;;;1.97;1.80;;;;;;;23.83;62.41;101502.94;5074934;28;20441;-70
2021/08/21 11:10:30;;;;;;;2.53;1.70;;;;;;;23.85;64.58;101503.34;5074970;28;21008;-70
2021/08/21 11:12:56;;;;;;;2.30;1.60;;;;;;;23.80;63.50;101503.69;5075568;28;20544;-71
2021/08/21 11:15:25;;;;;;;3.10;1.60;;;;;;;23.85;62.22;101503.34;5075022;28;20834;-71
2021/08/21 11:17:52;;;;;;;1.73;1.47;;;;;;;23.92;61.50;101497.97;5074982;28;20440;-71
2021/08/21 11:20:28;;;;;;;3.13;1.67;;;;;;;24.34;61.62;101501.78;5074895;28;20445;-71
2021/08/21 11:23:17;;;;;;;1.60;1.37;;;;;;;25.53;59.76;101502.13;5074756;28;20422;-70